createdAt,value
2022-12-28T00:03:54.311Z,98667.13
2022-12-28T00:07:57.345Z,98656.16
2022-12-28T00:12:02.086Z,98655.50
2022-12-28T00:16:09.500Z,98648.81
2022-12-28T00:20:13.884Z,98641.41
2022-12-28T00:24:20.228Z,98636.59
2022-12-28T00:28:24.903Z,98632.38
2022-12-28T00:32:28.293Z,98626.56
2022-12-28T00:37:09.902Z,98632.75
2022-12-28T00:40:55.166Z,98623.66
2022-12-28T00:45:00.137Z,98630.56
2022-12-28T00:49:04.304Z,98637.53
2022-12-28T00:53:07.585Z,98646.28
2022-12-28T00:57:10.567Z,98641.28
2022-12-28T01:01:18.377Z,98636.34
2022-12-28T01:05:21.638Z,98645.69
2022-12-28T01:09:24.995Z,98649.25
2022-12-28T01:13:28.091Z,98648.91
2022-12-28T01:17:32.838Z,98646.19
2022-12-28T01:21:37.379Z,98653.09
2022-12-28T01:25:40.961Z,98639.66
2022-12-28T01:29:43.974Z,98633.78
2022-12-28T01:33:49.303Z,98624.31
2022-12-28T01:37:52.341Z,98618.53
2022-12-28T01:41:55.737Z,98614.38
2022-12-28T01:45:58.929Z,98606.16
2022-12-28T01:50:09.224Z,98602.69
2022-12-28T01:54:12.994Z,98580.81
2022-12-28T01:58:20.652Z,98594.41
2022-12-28T02:02:24.370Z,98597.13
2022-12-28T02:06:29.407Z,98605.88
2022-12-28T02:10:42.996Z,98596.78
2022-12-28T02:14:49.317Z,98587.56
2022-12-28T02:18:53.934Z,98574.53
2022-12-28T02:23:24.652Z,98581.06
2022-12-28T02:27:39.392Z,98564.97
2022-12-28T02:31:51.424Z,98550.44
2022-12-28T02:36:00.005Z,98544.81
2022-12-28T02:40:07.290Z,98545.31
2022-12-28T02:44:11.400Z,98551.28
2022-12-28T02:48:33.225Z,98544.53
2022-12-28T02:53:07.268Z,98543.69
2022-12-28T02:57:24.808Z,98541.19
2022-12-28T03:01:51.337Z,98548.81
2022-12-28T03:06:30.628Z,98537.72
2022-12-28T03:10:43.215Z,98532.44
2022-12-28T03:14:48.325Z,98521.88
2022-12-28T03:19:18.179Z,98515.75
2022-12-28T03:23:41.537Z,98513.25
2022-12-28T03:28:03.308Z,98500.72
2022-12-28T03:32:07.711Z,98505.00
2022-12-28T03:36:17.075Z,98490.06
2022-12-28T03:40:31.432Z,98490.06
2022-12-28T03:44:37.130Z,98495.34
2022-12-28T03:48:40.854Z,98485.25
2022-12-28T03:52:44.541Z,98493.00
2022-12-28T03:56:51.245Z,98485.41
2022-12-28T04:00:54.513Z,98489.72
2022-12-28T04:04:57.919Z,98483.75
2022-12-28T04:09:01.270Z,98467.72
2022-12-28T04:13:05.736Z,98472.00
2022-12-28T04:17:09.059Z,98456.03
2022-12-28T04:21:13.084Z,98455.13
2022-12-28T04:25:16.495Z,98451.81
2022-12-28T04:29:21.272Z,98456.94
2022-12-28T04:33:24.941Z,98464.69
2022-12-28T04:37:28.144Z,98458.00
2022-12-28T04:41:31.396Z,98468.25
2022-12-28T04:45:36.166Z,98470.75
2022-12-28T04:49:39.456Z,98463.06
2022-12-28T04:53:43.726Z,98463.78
2022-12-28T04:57:47.509Z,98460.41
2022-12-28T05:01:52.070Z,98462.97
2022-12-28T05:05:55.270Z,98457.09
2022-12-28T05:09:58.525Z,98463.13
2022-12-28T05:14:01.810Z,98462.97
2022-12-28T05:18:06.597Z,98459.34
2022-12-28T05:22:39.085Z,98457.41
2022-12-28T05:26:44.125Z,98447.13
2022-12-28T05:30:47.227Z,98448.88
2022-12-28T05:34:52.037Z,98449.84
2022-12-28T05:38:56.093Z,98441.56
2022-12-28T05:42:59.535Z,98437.88
2022-12-28T05:47:02.805Z,98448.19
2022-12-28T05:51:10.027Z,98438.19
2022-12-28T05:55:12.999Z,98421.25
2022-12-28T05:59:16.200Z,98411.22
2022-12-28T06:03:19.739Z,98408.59
2022-12-28T06:07:24.672Z,98415.06
2022-12-28T06:11:29.417Z,98400.22
2022-12-28T06:15:32.589Z,98400.56
2022-12-28T06:19:35.754Z,98392.31
2022-12-28T06:23:40.326Z,98398.63
2022-12-28T06:27:43.458Z,98399.94
2022-12-28T06:31:49.453Z,98404.78
2022-12-28T06:35:52.845Z,98407.09
2022-12-28T06:39:57.567Z,98406.00
2022-12-28T06:44:01.462Z,98422.06
2022-12-28T06:48:04.753Z,98418.53
2022-12-28T06:52:08.115Z,98422.56
2022-12-28T06:56:18.774Z,98411.16
2022-12-28T07:00:22.243Z,98416.19
2022-12-28T07:04:25.283Z,98417.59
2022-12-28T07:08:28.583Z,98421.72
2022-12-28T07:12:33.103Z,98413.72
2022-12-28T07:20:40.673Z,98408.09
2022-12-28T07:24:44.056Z,98410.41
2022-12-28T07:28:50.603Z,98403.28
2022-12-28T07:32:53.892Z,98407.41
2022-12-28T07:36:56.916Z,98408.91
2022-12-28T07:41:03.543Z,98418.09
2022-12-28T07:45:11.180Z,98420.50
2022-12-28T07:49:14.482Z,98403.25
2022-12-28T07:53:22.071Z,98392.09
2022-12-28T07:57:25.684Z,98398.19
2022-12-28T08:01:32.172Z,98393.34
2022-12-28T08:05:35.449Z,98414.59
2022-12-28T08:09:38.931Z,98408.53
2022-12-28T08:13:43.830Z,98411.69
2022-12-28T08:17:48.372Z,98419.44
2022-12-28T08:21:51.706Z,98420.47
2022-12-28T08:25:54.742Z,98416.13
2022-12-28T08:29:59.076Z,98413.84
2022-12-28T08:34:06.943Z,98404.94
2022-12-28T08:38:10.243Z,98403.31
2022-12-28T08:42:13.448Z,98405.56
2022-12-28T08:46:18.779Z,98415.72
2022-12-28T08:50:29.541Z,98419.47
2022-12-28T08:54:34.856Z,98423.47
2022-12-28T08:58:38.510Z,98427.31
2022-12-28T09:02:41.744Z,98418.31
2022-12-28T09:06:46.983Z,98408.66
2022-12-28T09:10:50.374Z,98387.81
2022-12-28T09:14:53.505Z,98406.00
2022-12-28T09:18:58.678Z,98415.28
2022-12-28T09:23:03.513Z,98413.72
2022-12-28T09:27:06.598Z,98417.50
2022-12-28T09:31:11.740Z,98414.41
2022-12-28T09:35:14.950Z,98411.44
2022-12-28T09:39:23.456Z,98414.00
2022-12-28T09:43:28.367Z,98413.00
2022-12-28T09:47:39.929Z,98396.41
2022-12-28T09:51:52.197Z,98388.69
2022-12-28T09:56:01.434Z,98378.78
2022-12-28T10:00:06.375Z,98366.25
2022-12-28T10:04:12.467Z,98362.03
2022-12-28T10:08:17.791Z,98357.91
2022-12-28T10:12:24.932Z,98352.88
2022-12-28T10:16:31.847Z,98345.53
2022-12-28T10:20:35.622Z,98340.88
2022-12-28T10:24:41.751Z,98336.22
2022-12-28T10:28:50.527Z,98329.19
2022-12-28T10:33:02.141Z,98325.22
2022-12-28T10:37:13.999Z,98324.00
2022-12-28T10:41:20.053Z,98304.59
2022-12-28T10:45:28.784Z,98285.91
2022-12-28T10:49:37.593Z,98281.69
2022-12-28T10:53:44.291Z,98281.81
2022-12-28T10:58:27.044Z,98275.50
2022-12-28T11:02:29.360Z,98264.53
2022-12-28T11:06:34.672Z,98259.09
2022-12-28T11:10:38.059Z,98250.06
2022-12-28T11:14:41.587Z,98252.84
2022-12-28T11:18:46.290Z,98237.13
2022-12-28T11:22:49.782Z,98240.59
2022-12-28T11:32:44.176Z,98235.84
2022-12-28T11:36:49.804Z,98228.56
2022-12-28T11:40:54.403Z,98216.56
2022-12-28T11:44:59.141Z,98209.03
2022-12-28T11:49:03.645Z,98193.84
2022-12-28T11:57:35.397Z,98190.25
2022-12-28T12:01:49.191Z,98175.44
2022-12-28T12:05:54.511Z,98154.56
2022-12-28T12:10:34.107Z,98157.69
2022-12-28T12:14:43.915Z,98147.75
2022-12-28T12:18:51.893Z,98144.16
2022-12-28T12:23:00.757Z,98128.09
2022-12-28T12:27:13.742Z,98114.19
2022-12-28T12:31:27.132Z,98130.25
2022-12-28T12:35:36.321Z,98112.28
2022-12-28T12:40:17.281Z,98105.94
2022-12-28T12:44:34.762Z,98093.13
2022-12-28T12:49:01.909Z,98091.09
2022-12-28T12:53:15.910Z,98087.28
2022-12-28T12:57:26.798Z,98079.91
2022-12-28T13:01:38.277Z,98072.94
2022-12-28T13:05:46.279Z,98071.97
2022-12-28T13:09:50.331Z,98069.38
2022-12-28T13:13:55.495Z,98056.38
2022-12-28T13:18:42.875Z,98051.59
2022-12-28T13:22:32.888Z,98053.91
2022-12-28T13:26:36.216Z,98052.94
2022-12-28T13:30:39.912Z,98037.63
2022-12-28T13:34:51.001Z,98034.53
2022-12-28T13:39:13.582Z,98040.97
2022-12-28T13:44:08.830Z,98051.63
2022-12-28T13:48:12.506Z,98050.25
2022-12-28T13:52:22.304Z,98036.59
2022-12-28T13:56:29.705Z,98033.69
2022-12-28T14:00:34.989Z,98029.97
2022-12-28T14:04:54.084Z,98034.56
2022-12-28T14:09:03.838Z,98026.91
2022-12-28T14:13:11.758Z,98030.03
2022-12-28T14:17:15.825Z,98035.84
2022-12-28T14:21:34.185Z,98027.66
2022-12-28T14:25:43.381Z,98034.03
2022-12-28T14:29:48.228Z,98033.34
2022-12-28T14:33:54.216Z,98034.28
2022-12-28T14:37:59.366Z,98026.81
2022-12-28T14:42:04.129Z,98020.47
2022-12-28T14:46:29.406Z,98025.75
2022-12-28T14:50:33.096Z,98018.53
2022-12-28T14:54:45.419Z,98024.53
2022-12-28T14:58:51.637Z,98020.00
2022-12-28T15:02:57.496Z,98022.88
2022-12-28T15:07:00.549Z,98010.28
2022-12-28T15:15:10.373Z,98027.53
2022-12-28T15:19:15.014Z,98033.66
2022-12-28T15:23:18.135Z,98008.88
2022-12-28T15:27:21.208Z,98012.28
2022-12-28T15:31:24.566Z,98015.53
2022-12-28T15:35:29.562Z,98009.94
2022-12-28T15:39:32.735Z,98006.75
2022-12-28T15:43:35.808Z,97997.53
2022-12-28T15:47:39.001Z,98002.78
2022-12-28T15:51:44.734Z,97997.56
2022-12-28T15:56:00.036Z,97987.75
2022-12-28T16:00:04.169Z,98009.53
2022-12-28T16:04:07.536Z,98002.69
2022-12-28T16:08:12.278Z,98008.25
2022-12-28T16:12:18.456Z,98006.09
2022-12-28T16:16:22.670Z,98015.78
2022-12-28T16:20:25.866Z,98007.56
2022-12-28T16:24:30.653Z,98019.81
2022-12-28T16:28:34.071Z,98015.81
2022-12-28T16:32:37.575Z,98006.56
2022-12-28T16:36:41.723Z,97996.28
2022-12-28T16:40:46.540Z,97996.28
2022-12-28T16:44:51.141Z,97985.13
2022-12-28T16:48:54.281Z,97979.28
2022-12-28T16:53:01.159Z,97982.88
2022-12-28T16:57:05.736Z,97986.72
2022-12-28T17:01:11.245Z,97982.91
2022-12-28T17:05:14.880Z,97986.63
2022-12-28T17:09:20.338Z,97985.22
2022-12-28T17:13:25.054Z,97983.53
2022-12-28T17:17:28.529Z,97975.13
2022-12-28T17:21:33.196Z,97978.63
2022-12-28T17:25:37.719Z,97973.47
2022-12-28T17:29:42.458Z,97970.91
2022-12-28T17:33:47.057Z,97968.53
2022-12-28T17:37:51.037Z,97962.78
2022-12-28T17:41:54.322Z,97955.38
2022-12-28T17:46:02.489Z,97948.78
2022-12-28T17:50:06.589Z,97948.28
2022-12-28T17:54:12.243Z,97952.81
2022-12-28T17:58:17.092Z,97958.38
2022-12-28T18:02:22.191Z,97951.78
2022-12-28T18:06:26.132Z,97949.63
2022-12-28T18:10:29.393Z,97942.22
2022-12-28T18:14:32.573Z,97951.06
2022-12-28T18:18:37.570Z,97940.06
2022-12-28T18:22:43.433Z,97942.03
2022-12-28T18:26:46.700Z,97939.56
2022-12-28T18:30:50.363Z,97931.13
2022-12-28T18:34:54.792Z,97924.53
2022-12-28T18:38:58.140Z,97928.03
2022-12-28T18:43:01.303Z,97930.28
2022-12-28T18:47:04.747Z,97927.63
2022-12-28T18:51:12.078Z,97932.56
2022-12-28T18:55:15.712Z,97929.88
2022-12-28T18:59:19.017Z,97936.41
2022-12-28T19:03:22.576Z,97931.69
2022-12-28T19:07:27.488Z,97930.22
2022-12-28T19:11:31.291Z,97919.44
2022-12-28T19:15:34.677Z,97920.38
2022-12-28T19:19:38.083Z,97915.41
2022-12-28T19:23:42.615Z,97905.34
2022-12-28T19:27:45.932Z,97904.50
2022-12-28T19:31:50.398Z,97898.56
2022-12-28T19:35:53.685Z,97889.75
2022-12-28T19:39:58.249Z,97885.00
2022-12-28T19:44:01.808Z,97886.16
2022-12-28T19:48:05.296Z,97888.13
2022-12-28T19:52:08.538Z,97874.50
2022-12-28T19:56:16.648Z,97876.94
2022-12-28T20:00:20.231Z,97881.25
2022-12-28T20:04:23.498Z,97883.00
2022-12-28T20:08:26.981Z,97859.94
2022-12-28T20:12:32.164Z,97852.31
2022-12-28T20:16:37.302Z,97848.97
2022-12-28T20:21:16.787Z,97860.28
2022-12-28T20:25:03.922Z,97859.75
2022-12-28T20:29:08.508Z,97856.00
2022-12-28T20:33:11.783Z,97887.41
2022-12-28T20:37:15.236Z,97850.94
2022-12-28T20:41:38.061Z,97858.22
2022-12-28T20:45:42.907Z,97856.84
2022-12-28T20:49:46.500Z,97873.75
2022-12-28T20:53:51.347Z,97861.78
2022-12-28T20:57:55.314Z,97868.59
2022-12-28T21:02:00.236Z,97859.31
2022-12-28T21:06:04.663Z,97843.28
2022-12-28T21:10:10.551Z,97839.28
2022-12-28T21:14:13.934Z,97838.78
2022-12-28T21:18:20.328Z,97851.97
2022-12-28T21:22:23.491Z,97839.66
2022-12-28T21:26:27.022Z,97834.13
2022-12-28T21:30:30.572Z,97832.91
2022-12-28T21:34:35.462Z,97827.38
2022-12-28T21:38:43.552Z,97809.41
2022-12-28T21:42:47.588Z,97836.06
2022-12-28T21:46:52.591Z,97822.91
2022-12-28T21:50:57.356Z,97824.97
2022-12-28T21:55:22.340Z,97818.19
2022-12-28T21:59:27.495Z,97814.78
2022-12-28T22:03:49.059Z,97813.97
2022-12-28T22:08:14.804Z,97807.09
2022-12-28T22:12:35.418Z,97812.44
2022-12-28T22:16:38.896Z,97814.63
2022-12-28T22:20:42.511Z,97807.91
2022-12-28T22:24:47.209Z,97807.91
2022-12-28T22:28:50.359Z,97803.81
2022-12-28T22:32:53.808Z,97804.84
2022-12-28T22:36:57.242Z,97805.06
2022-12-28T22:41:02.363Z,97807.94
2022-12-28T22:45:05.974Z,97806.63
2022-12-28T22:49:09.535Z,97802.63
2022-12-28T22:53:12.939Z,97809.59
2022-12-28T22:57:17.798Z,97804.66
2022-12-28T23:01:21.873Z,97801.41
2022-12-28T23:05:25.232Z,97798.09
2022-12-28T23:09:28.502Z,97797.41
2022-12-28T23:13:34.662Z,97796.66
2022-12-28T23:17:37.978Z,97783.44
2022-12-28T23:21:58.571Z,97797.50
2022-12-28T23:26:19.434Z,97798.94
2022-12-28T23:30:29.819Z,97786.38
2022-12-28T23:34:33.210Z,97776.34
2022-12-28T23:38:36.399Z,97770.38
2022-12-28T23:42:41.415Z,97776.34
2022-12-28T23:46:47.529Z,97781.50
2022-12-28T23:50:50.771Z,97774.69
2022-12-28T23:54:53.806Z,97779.13
2022-12-28T23:58:57.072Z,97778.19
